createdAt,value
2018-07-27T00:01:17.811Z,19.80
2018-07-27T00:03:46.482Z,19.80
2018-07-27T00:06:15.053Z,19.80
2018-07-27T00:08:43.629Z,19.80
2018-07-27T00:11:12.235Z,19.90
2018-07-27T00:13:40.888Z,19.90
2018-07-27T00:16:09.580Z,19.90
2018-07-27T00:18:38.216Z,19.90
2018-07-27T00:21:06.956Z,19.90
2018-07-27T00:23:35.549Z,19.90
2018-07-27T00:26:04.201Z,19.90
2018-07-27T00:28:32.756Z,19.90
2018-07-27T00:31:01.369Z,19.90
2018-07-27T00:33:29.945Z,19.90
2018-07-27T00:35:58.528Z,19.80
2018-07-27T00:38:27.153Z,19.60
2018-07-27T00:40:55.811Z,19.50
2018-07-27T00:43:24.416Z,19.30
2018-07-27T00:45:53.028Z,19.20
2018-07-27T00:48:21.663Z,19.20
2018-07-27T00:50:50.324Z,19.10
2018-07-27T00:53:18.928Z,19.10
2018-07-27T00:55:47.590Z,19.00
2018-07-27T00:58:16.130Z,19.00
2018-07-27T01:00:44.816Z,18.80
2018-07-27T01:03:13.465Z,18.80
2018-07-27T01:05:42.225Z,18.70
2018-07-27T01:08:10.892Z,18.60
2018-07-27T01:10:39.621Z,18.40
2018-07-27T01:13:08.405Z,18.20
2018-07-27T01:15:37.122Z,18.20
2018-07-27T01:18:05.999Z,18.30
2018-07-27T01:20:34.694Z,18.30
2018-07-27T01:23:03.353Z,18.30
2018-07-27T01:25:32.141Z,18.30
2018-07-27T01:28:00.837Z,18.30
2018-07-27T01:30:29.613Z,18.40
2018-07-27T01:32:58.278Z,18.30
2018-07-27T01:35:27.022Z,18.30
2018-07-27T01:37:55.831Z,18.20
2018-07-27T01:40:24.544Z,18.20
2018-07-27T01:42:53.285Z,18.20
2018-07-27T01:45:21.904Z,18.20
2018-07-27T01:47:50.653Z,18.20
2018-07-27T01:50:19.373Z,18.20
2018-07-27T01:52:48.117Z,18.20
2018-07-27T01:55:16.745Z,18.10
2018-07-27T01:57:45.449Z,18.10
2018-07-27T02:00:14.116Z,18.00
2018-07-27T02:02:42.989Z,18.00
2018-07-27T02:05:11.715Z,18.00
2018-07-27T02:07:40.342Z,17.90
2018-07-27T02:10:08.974Z,17.90
2018-07-27T02:12:37.774Z,17.90
2018-07-27T02:15:08.126Z,17.90
2018-07-27T02:17:36.784Z,17.90
2018-07-27T02:20:05.618Z,17.90
2018-07-27T02:22:34.550Z,17.80
2018-07-27T02:25:03.318Z,17.80
2018-07-27T02:27:32.066Z,17.70
2018-07-27T02:30:00.733Z,17.70
2018-07-27T02:32:29.384Z,17.70
2018-07-27T02:34:58.103Z,17.80
2018-07-27T02:37:26.811Z,17.80
2018-07-27T02:39:55.460Z,17.80
2018-07-27T02:42:24.242Z,17.80
2018-07-27T02:44:52.862Z,17.70
2018-07-27T02:47:21.518Z,17.70
2018-07-27T02:49:50.189Z,17.70
2018-07-27T02:52:18.889Z,17.60
2018-07-27T02:54:47.750Z,17.60
2018-07-27T02:57:16.453Z,17.50
2018-07-27T02:59:45.154Z,17.50
2018-07-27T03:02:13.857Z,17.40
2018-07-27T03:04:42.503Z,17.40
2018-07-27T03:07:11.194Z,17.30
2018-07-27T03:09:39.888Z,17.30
2018-07-27T03:12:08.643Z,17.30
2018-07-27T03:14:37.338Z,17.20
2018-07-27T03:17:06.337Z,17.20
2018-07-27T03:19:35.043Z,17.20
2018-07-27T03:22:03.701Z,17.10
2018-07-27T03:24:32.412Z,17.10
2018-07-27T03:27:01.111Z,17.10
2018-07-27T03:29:29.891Z,17.10
2018-07-27T03:31:58.713Z,17.10
2018-07-27T03:34:27.501Z,17.00
2018-07-27T03:36:56.202Z,17.00
2018-07-27T03:39:24.824Z,16.90
2018-07-27T03:41:53.498Z,16.90
2018-07-27T03:44:22.182Z,16.90
2018-07-27T03:46:50.856Z,16.90
2018-07-27T03:49:19.542Z,16.90
2018-07-27T03:51:48.221Z,16.90
2018-07-27T03:54:16.985Z,16.90
2018-07-27T03:56:45.716Z,16.80
2018-07-27T03:59:14.378Z,16.80
2018-07-27T04:01:43.052Z,16.80
2018-07-27T04:04:11.661Z,16.80
2018-07-27T04:06:40.265Z,16.80
2018-07-27T04:09:09.626Z,16.80
2018-07-27T04:11:38.625Z,16.80
2018-07-27T04:14:07.530Z,16.80
2018-07-27T04:16:36.213Z,16.80
2018-07-27T04:19:04.978Z,16.80
2018-07-27T04:21:33.583Z,16.90
2018-07-27T04:24:02.285Z,16.90
2018-07-27T04:26:30.901Z,17.00
2018-07-27T04:28:59.546Z,17.10
2018-07-27T04:31:28.240Z,17.30
2018-07-27T04:33:57.044Z,17.40
2018-07-27T04:36:25.681Z,17.50
2018-07-27T04:38:54.332Z,17.50
2018-07-27T04:41:22.949Z,17.50
2018-07-27T04:43:51.529Z,17.50
2018-07-27T04:46:20.173Z,17.60
2018-07-27T04:48:48.793Z,17.70
2018-07-27T04:51:17.513Z,17.80
2018-07-27T04:53:46.103Z,17.90
2018-07-27T04:56:14.762Z,18.00
2018-07-27T04:58:43.551Z,18.00
2018-07-27T05:01:12.310Z,18.00
2018-07-27T05:03:41.045Z,18.00
2018-07-27T05:06:09.754Z,17.90
2018-07-27T05:08:43.577Z,17.90
2018-07-27T05:11:12.290Z,18.00
2018-07-27T05:13:40.933Z,18.00
2018-07-27T05:16:09.624Z,18.10
2018-07-27T05:18:38.403Z,18.20
2018-07-27T05:21:07.186Z,18.20
2018-07-27T05:23:35.910Z,18.30
2018-07-27T05:26:04.828Z,18.40
2018-07-27T05:28:33.486Z,18.40
2018-07-27T05:31:02.230Z,18.50
2018-07-27T05:33:30.939Z,18.50
2018-07-27T05:35:59.611Z,18.60
2018-07-27T05:38:28.302Z,18.60
2018-07-27T05:40:57.084Z,18.70
2018-07-27T05:43:25.898Z,18.90
2018-07-27T05:45:54.767Z,19.00
2018-07-27T05:48:23.909Z,19.10
2018-07-27T05:50:52.526Z,19.30
2018-07-27T05:53:21.265Z,19.40
2018-07-27T05:55:50.042Z,19.60
2018-07-27T05:58:18.713Z,19.80
2018-07-27T06:00:47.505Z,19.90
2018-07-27T06:03:16.250Z,20.00
2018-07-27T06:05:44.978Z,20.10
2018-07-27T06:08:13.658Z,20.20
2018-07-27T06:10:42.349Z,20.30
2018-07-27T06:13:11.069Z,20.40
2018-07-27T06:15:39.799Z,20.50
2018-07-27T06:18:08.528Z,20.70
2018-07-27T06:20:37.241Z,20.80
2018-07-27T06:23:05.889Z,21.00
2018-07-27T06:25:34.605Z,21.10
2018-07-27T06:28:03.302Z,21.20
2018-07-27T06:30:32.024Z,21.30
2018-07-27T06:33:00.691Z,21.40
2018-07-27T06:35:29.401Z,21.60
2018-07-27T06:37:58.085Z,21.80
2018-07-27T06:40:26.726Z,21.90
2018-07-27T06:42:55.443Z,22.00
2018-07-27T06:45:24.095Z,22.10
2018-07-27T06:47:52.833Z,22.10
2018-07-27T06:50:21.434Z,22.20
2018-07-27T06:52:51.221Z,22.30
2018-07-27T06:55:20.206Z,22.40
2018-07-27T06:57:50.903Z,22.50
2018-07-27T07:00:20.421Z,22.70
2018-07-27T07:02:50.254Z,22.90
2018-07-27T07:05:20.368Z,23.10
2018-07-27T07:07:50.117Z,23.40
2018-07-27T07:10:20.457Z,23.70
2018-07-27T07:12:50.591Z,24.00
2018-07-27T07:15:20.373Z,24.20
2018-07-27T07:17:49.100Z,24.40
2018-07-27T07:20:18.066Z,24.60
2018-07-27T07:22:46.686Z,24.80
2018-07-27T07:25:15.509Z,25.00
2018-07-27T07:27:45.215Z,25.20
2018-07-27T07:30:14.239Z,25.40
2018-07-27T07:32:46.668Z,25.60
2018-07-27T07:35:15.606Z,25.90
2018-07-27T07:37:44.646Z,26.30
2018-07-27T07:40:13.471Z,26.70
2018-07-27T07:42:42.407Z,26.80
2018-07-27T07:45:11.433Z,26.90
2018-07-27T07:47:40.392Z,27.10
2018-07-27T07:50:09.305Z,27.10
2018-07-27T07:52:38.315Z,27.30
2018-07-27T07:55:07.218Z,27.60
2018-07-27T07:57:36.215Z,27.90
2018-07-27T08:00:06.396Z,28.20
2018-07-27T08:02:35.363Z,28.40
2018-07-27T08:05:04.464Z,28.70
2018-07-27T08:07:34.380Z,29.00
2018-07-27T08:10:03.256Z,29.30
2018-07-27T08:12:36.780Z,29.70
2018-07-27T08:15:05.611Z,29.90
2018-07-27T08:17:35.772Z,30.00
2018-07-27T08:20:04.662Z,29.90
2018-07-27T08:22:33.330Z,30.20
2018-07-27T08:25:01.927Z,30.60
2018-07-27T08:27:42.216Z,31.00
2018-07-27T08:30:14.448Z,31.30
2018-07-27T08:32:43.194Z,31.30
2018-07-27T08:35:16.630Z,31.40
2018-07-27T08:37:45.334Z,31.40
2018-07-27T08:40:13.946Z,31.70
2018-07-27T08:42:42.609Z,31.70
2018-07-27T08:45:11.274Z,31.60
2018-07-27T08:47:39.917Z,31.90
2018-07-27T08:50:08.681Z,32.40
2018-07-27T08:52:37.265Z,32.60
2018-07-27T08:55:06.243Z,32.90
2018-07-27T08:57:35.175Z,33.10
2018-07-27T09:00:05.873Z,33.30
2018-07-27T09:02:34.809Z,33.10
2018-07-27T09:05:04.090Z,33.10
2018-07-27T09:07:33.409Z,33.00
2018-07-27T09:10:02.044Z,33.40
2018-07-27T09:12:31.080Z,33.70
2018-07-27T09:15:00.418Z,34.10
2018-07-27T09:20:22.254Z,34.70
2018-07-27T09:22:51.790Z,35.10
2018-07-27T09:25:20.588Z,35.50
2018-07-27T09:27:49.039Z,36.00
2018-07-27T09:30:17.622Z,36.30
2018-07-27T09:32:49.450Z,36.60
2018-07-27T09:35:19.056Z,36.60
2018-07-27T09:37:47.710Z,36.50
2018-07-27T09:40:16.989Z,36.60
2018-07-27T09:42:45.948Z,36.90
2018-07-27T09:45:14.607Z,36.70
2018-07-27T09:47:43.216Z,36.60
2018-07-27T09:50:13.125Z,36.80
2018-07-27T09:52:41.768Z,36.60
2018-07-27T09:55:10.498Z,36.50
2018-07-27T09:57:39.198Z,36.50
2018-07-27T10:00:07.821Z,36.40
2018-07-27T10:02:36.419Z,36.60
2018-07-27T10:05:05.317Z,36.90
2018-07-27T10:07:33.869Z,37.20
2018-07-27T10:10:02.448Z,37.70
2018-07-27T10:12:31.091Z,37.90
2018-07-27T10:14:59.731Z,38.10
2018-07-27T10:17:28.313Z,38.20
2018-07-27T10:20:02.753Z,38.40
2018-07-27T10:22:31.315Z,38.30
2018-07-27T10:25:02.460Z,38.00
2018-07-27T10:27:35.705Z,38.00
2018-07-27T10:31:03.147Z,37.70
2018-07-27T10:33:31.903Z,37.00
2018-07-27T10:36:00.554Z,36.70
2018-07-27T10:38:29.874Z,37.20
2018-07-27T10:40:58.958Z,38.20
2018-07-27T10:43:27.729Z,38.50
2018-07-27T10:45:56.591Z,38.90
2018-07-27T10:48:25.386Z,39.50
2018-07-27T10:50:54.204Z,39.80
2018-07-27T10:53:22.892Z,40.10
2018-07-27T10:55:51.525Z,39.70
2018-07-27T10:58:20.106Z,39.30
2018-07-27T11:00:48.999Z,39.40
2018-07-27T11:03:17.581Z,39.60
2018-07-27T11:05:46.237Z,39.40
2018-07-27T11:08:15.130Z,39.70
2018-07-27T11:10:43.865Z,39.90
2018-07-27T11:13:12.482Z,39.70
2018-07-27T11:15:41.209Z,39.60
2018-07-27T11:18:09.763Z,39.60
2018-07-27T11:20:38.355Z,40.00
2018-07-27T11:23:07.042Z,40.10
2018-07-27T11:25:35.758Z,40.10
2018-07-27T11:28:04.321Z,40.30
2018-07-27T11:30:33.002Z,40.40
2018-07-27T11:33:01.587Z,40.60
2018-07-27T11:35:30.189Z,40.90
2018-07-27T11:37:58.765Z,40.70
2018-07-27T11:40:27.350Z,39.80
2018-07-27T11:42:55.908Z,39.20
2018-07-27T11:45:24.537Z,39.30
2018-07-27T11:47:53.176Z,39.50
2018-07-27T11:50:21.781Z,40.10
2018-07-27T11:52:50.386Z,40.40
2018-07-27T11:55:19.010Z,40.50
2018-07-27T11:57:47.606Z,40.50
2018-07-27T12:00:16.219Z,40.10
2018-07-27T12:02:44.961Z,40.50
2018-07-27T12:05:13.570Z,40.90
2018-07-27T12:07:42.162Z,40.90
2018-07-27T12:10:10.777Z,40.50
2018-07-27T12:12:39.376Z,40.30
2018-07-27T12:15:08.242Z,40.60
2018-07-27T12:17:36.562Z,41.00
2018-07-27T12:20:05.237Z,40.90
2018-07-27T12:22:33.872Z,39.90
2018-07-27T12:25:02.483Z,39.00
2018-07-27T12:27:31.149Z,38.60
2018-07-27T12:29:59.741Z,39.00
2018-07-27T12:32:28.433Z,39.60
2018-07-27T12:34:57.054Z,39.60
2018-07-27T12:37:38.928Z,39.80
2018-07-27T12:40:07.568Z,39.90
2018-07-27T12:42:36.304Z,40.10
2018-07-27T12:45:05.158Z,39.90
2018-07-27T12:47:33.690Z,40.30
2018-07-27T12:50:02.259Z,40.70
2018-07-27T12:52:30.925Z,40.80
2018-07-27T12:54:59.582Z,41.10
2018-07-27T12:57:28.229Z,41.20
2018-07-27T12:59:56.825Z,41.30
2018-07-27T13:02:25.449Z,41.30
2018-07-27T13:04:54.073Z,41.60
2018-07-27T13:07:22.692Z,41.70
2018-07-27T13:09:55.485Z,42.00
2018-07-27T13:12:25.316Z,42.10
2018-07-27T13:14:59.136Z,42.10
2018-07-27T13:17:27.885Z,42.50
2018-07-27T13:19:57.119Z,42.90
2018-07-27T13:22:25.987Z,42.30
2018-07-27T13:27:23.685Z,41.20
2018-07-27T13:29:52.265Z,41.20
2018-07-27T13:32:20.879Z,41.80
2018-07-27T13:34:56.062Z,42.30
2018-07-27T13:37:27.617Z,42.50
